Anniston, Missouri
Current Conditions -  °F | °C
As of 6:55 PM on Wednesday 22 Oct 2014 (Local Time) from KCIR Reporting Station
Clear Clear  
Wind Chill: 13°   Ceiling: Unl
Heat Index: 13°   Visibility: 10mi
Dew Point:   Wind: 3mph
Humidity: 63%   Direction: 30°NNE
Pressure: 30.21"   Gusts: NA
Location:  36.83°N, 89.33°W
Report Text: KCIR 222355Z AUTO 03003KT 10SM CLR 13/06 A3021 RMK AO2 60001 T01300060 10198 20130
Loading
Personal Weather Stations






























Interactive Weather Map
Tropical Storm Tracking
New forecast layout! Learn more

10-Day Weather Forecast

Advertisements
Track Severe Weather on mobile